createdAt,value
2019-01-05T00:04:34.421Z,21.00
2019-01-05T00:09:56.103Z,20.90
2019-01-05T00:15:26.741Z,21.04
2019-01-05T00:20:56.250Z,21.07
2019-01-05T00:26:13.529Z,21.05
2019-01-05T00:31:34.967Z,21.05
2019-01-05T00:37:00.696Z,21.03
2019-01-05T00:42:23.498Z,21.03
2019-01-05T00:47:48.826Z,20.93
2019-01-05T00:53:10.587Z,20.93
2019-01-05T00:58:27.046Z,20.90
2019-01-05T01:03:49.521Z,20.98
2019-01-05T01:09:11.708Z,20.94
2019-01-05T01:14:34.870Z,21.00
2019-01-05T01:19:58.828Z,20.96
2019-01-05T01:25:20.861Z,21.02
2019-01-05T01:30:44.353Z,21.08
2019-01-05T01:36:08.670Z,21.02
2019-01-05T01:41:50.394Z,21.07
2019-01-05T01:47:23.195Z,20.96
2019-01-05T01:52:49.590Z,20.99
2019-01-05T01:58:10.869Z,20.93
2019-01-05T02:03:37.225Z,21.01
2019-01-05T02:09:09.247Z,20.80
2019-01-05T02:14:28.213Z,20.87
2019-01-05T02:20:13.306Z,20.87
2019-01-05T02:26:03.655Z,20.97
2019-01-05T02:32:05.894Z,21.07
2019-01-05T02:38:03.059Z,21.00
2019-01-05T02:44:30.991Z,21.09
2019-01-05T02:50:36.742Z,21.05
2019-01-05T02:56:26.473Z,20.92
2019-01-05T03:02:12.123Z,20.97
2019-01-05T03:08:31.323Z,20.94
2019-01-05T03:14:19.480Z,20.94
2019-01-05T03:20:28.589Z,20.83
2019-01-05T03:26:37.925Z,20.88
2019-01-05T03:32:24.948Z,20.90
2019-01-05T03:38:32.964Z,20.93
2019-01-05T03:44:25.740Z,20.93
2019-01-05T03:50:32.527Z,21.19
2019-01-05T03:56:27.501Z,21.14
2019-01-05T04:02:27.503Z,21.08
2019-01-05T04:08:23.647Z,21.00
2019-01-05T04:14:30.753Z,20.94
2019-01-05T04:20:40.647Z,20.91
2019-01-05T04:26:56.431Z,20.91
2019-01-05T04:33:05.134Z,20.78
2019-01-05T04:38:56.502Z,20.81
2019-01-05T04:44:56.048Z,21.00
2019-01-05T04:50:43.267Z,21.15
2019-01-05T04:56:42.035Z,21.19
2019-01-05T05:02:46.506Z,21.12
2019-01-05T05:08:53.654Z,21.00
2019-01-05T05:14:55.668Z,20.96
2019-01-05T05:20:54.349Z,20.81
2019-01-05T05:26:46.647Z,20.86
2019-01-05T05:32:44.153Z,20.86
2019-01-05T05:38:59.300Z,20.80
2019-01-05T05:44:50.815Z,20.80
2019-01-05T05:51:03.419Z,20.93
2019-01-05T05:57:03.690Z,21.28
2019-01-05T06:03:00.685Z,21.22
2019-01-05T06:09:09.732Z,21.24
2019-01-05T06:15:03.286Z,21.10
2019-01-05T06:20:51.609Z,21.00
2019-01-05T06:26:52.948Z,20.84
2019-01-05T06:33:13.674Z,20.83
2019-01-05T06:39:25.205Z,20.83
2019-01-05T06:45:30.452Z,20.76
2019-01-05T06:51:40.336Z,20.71
2019-01-05T06:57:45.299Z,20.71
2019-01-05T07:03:57.412Z,20.71
2019-01-05T07:10:07.206Z,21.10
2019-01-05T07:15:57.523Z,21.20
2019-01-05T07:21:59.515Z,21.20
2019-01-05T07:28:15.390Z,21.06
2019-01-05T07:34:17.581Z,20.94
2019-01-05T07:40:24.313Z,20.74
2019-01-05T07:46:23.703Z,20.80
2019-01-05T07:52:34.748Z,20.73
2019-01-05T07:58:59.281Z,20.72
2019-01-05T08:04:52.459Z,20.64
2019-01-05T08:10:54.239Z,20.79
2019-01-05T08:17:05.711Z,20.98
2019-01-05T08:23:07.713Z,21.06
2019-01-05T08:29:15.664Z,20.99
2019-01-05T08:35:13.868Z,20.91
2019-01-05T08:41:13.641Z,20.91
2019-01-05T08:47:30.671Z,20.79
2019-01-05T08:53:33.552Z,16.64
2019-01-05T08:59:51.752Z,18.17
2019-01-05T09:05:48.148Z,19.52
2019-01-05T09:11:55.646Z,20.67
2019-01-05T09:17:58.938Z,20.60
2019-01-05T09:24:01.646Z,20.84
2019-01-05T09:30:02.841Z,21.02
2019-01-05T09:35:48.612Z,20.81
2019-01-05T09:42:12.032Z,20.95
2019-01-05T09:48:28.115Z,20.82
2019-01-05T09:54:15.625Z,20.78
2019-01-05T10:00:38.581Z,20.71
2019-01-05T10:06:36.523Z,20.74
2019-01-05T10:12:37.428Z,20.72
2019-01-05T10:18:35.776Z,20.60
2019-01-05T10:24:33.515Z,20.67
2019-01-05T10:30:34.910Z,20.81
2019-01-05T10:36:40.971Z,20.94
2019-01-05T10:42:49.602Z,21.02
2019-01-05T10:48:48.788Z,21.02
2019-01-05T10:54:54.967Z,20.82
2019-01-05T11:01:11.211Z,20.77
2019-01-05T11:07:07.445Z,20.73
2019-01-05T11:13:28.351Z,20.76
2019-01-05T11:19:35.364Z,20.92
2019-01-05T11:25:44.801Z,20.82
2019-01-05T11:31:39.253Z,20.89
2019-01-05T11:37:44.197Z,20.88
2019-01-05T11:43:51.441Z,20.88
2019-01-05T11:49:53.644Z,20.89
2019-01-05T11:56:02.452Z,21.13
2019-01-05T12:01:58.012Z,21.16
2019-01-05T12:08:05.574Z,21.11
2019-01-05T12:13:52.953Z,21.09
2019-01-05T12:20:09.061Z,20.92
2019-01-05T12:26:44.413Z,20.88
2019-01-05T12:32:53.950Z,20.79
2019-01-05T12:39:46.666Z,20.79
2019-01-05T12:51:42.573Z,20.83
2019-01-05T12:57:54.542Z,20.84
2019-01-05T13:03:49.251Z,21.03
2019-01-05T13:10:02.841Z,20.96
2019-01-05T13:15:58.307Z,20.97
2019-01-05T13:22:12.405Z,20.84
2019-01-05T13:28:05.459Z,20.89
2019-01-05T13:33:57.844Z,20.81
2019-01-05T13:39:49.567Z,20.81
2019-01-05T13:45:41.969Z,20.89
2019-01-05T13:52:05.108Z,20.83
2019-01-05T13:57:30.489Z,21.01
2019-01-05T14:02:52.426Z,21.02
2019-01-05T14:08:21.635Z,21.00
2019-01-05T14:13:37.941Z,20.98
2019-01-05T14:18:59.475Z,20.98
2019-01-05T14:24:32.494Z,20.77
2019-01-05T14:29:54.129Z,20.73
2019-01-05T14:35:20.230Z,20.73
2019-01-05T14:40:48.977Z,20.87
2019-01-05T14:46:18.084Z,20.87
2019-01-05T14:51:41.128Z,20.89
2019-01-05T14:57:13.505Z,20.98
2019-01-05T15:02:35.583Z,20.94
2019-01-05T15:07:59.470Z,20.86
2019-01-05T15:13:22.467Z,20.83
2019-01-05T15:18:44.131Z,20.83
2019-01-05T15:24:16.415Z,20.71
2019-01-05T15:29:45.343Z,20.66
2019-01-05T15:35:21.349Z,20.99
2019-01-05T15:40:51.641Z,20.99
2019-01-05T15:46:19.150Z,20.98
2019-01-05T15:51:42.655Z,20.98
2019-01-05T15:57:08.702Z,20.86
2019-01-05T16:02:30.691Z,20.90
2019-01-05T16:07:52.750Z,20.83
2019-01-05T16:13:14.858Z,20.83
2019-01-05T16:18:36.662Z,20.74
2019-01-05T16:23:58.226Z,20.72
2019-01-05T16:29:20.268Z,20.66
2019-01-05T16:34:52.321Z,20.95
2019-01-05T16:40:13.673Z,20.95
2019-01-05T16:45:26.278Z,20.89
2019-01-05T16:50:47.892Z,20.84
2019-01-05T16:56:11.270Z,20.73
2019-01-05T17:01:30.777Z,20.75
2019-01-05T17:06:53.741Z,20.68
2019-01-05T17:12:15.762Z,20.62
2019-01-05T17:17:39.677Z,20.61
2019-01-05T17:23:01.634Z,20.74
2019-01-05T17:28:35.176Z,20.74
2019-01-05T17:34:16.662Z,20.74
2019-01-05T17:39:41.580Z,21.03
2019-01-05T17:45:10.876Z,21.03
2019-01-05T17:50:32.583Z,20.91
2019-01-05T17:55:56.977Z,20.91
2019-01-05T18:01:18.696Z,20.77
2019-01-05T18:06:40.688Z,20.72
2019-01-05T18:12:02.449Z,20.67
2019-01-05T18:17:43.911Z,20.65
2019-01-05T18:23:08.717Z,20.67
2019-01-05T18:28:36.709Z,20.73
2019-01-05T18:34:05.967Z,20.92
2019-01-05T18:39:28.589Z,21.17
2019-01-05T18:44:54.752Z,21.11
2019-01-05T18:50:23.808Z,21.04
2019-01-05T18:56:00.076Z,20.91
2019-01-05T19:01:20.435Z,20.91
2019-01-05T19:06:50.287Z,20.78
2019-01-05T19:12:20.101Z,20.78
2019-01-05T19:17:41.656Z,20.63
2019-01-05T19:22:55.592Z,20.63
2019-01-05T19:28:34.053Z,20.80
2019-01-05T19:33:57.083Z,20.99
2019-01-05T19:39:25.052Z,21.01
2019-01-05T19:44:51.137Z,20.98
2019-01-05T19:50:13.012Z,20.98
2019-01-05T19:55:46.527Z,20.93
2019-01-05T20:01:02.722Z,20.93
2019-01-05T20:06:24.431Z,20.80
2019-01-05T20:11:46.380Z,20.75
2019-01-05T20:17:08.810Z,20.71
2019-01-05T20:22:30.429Z,20.68
2019-01-05T20:28:04.665Z,20.68
2019-01-05T20:33:39.296Z,20.75
2019-01-05T20:39:10.973Z,20.91
2019-01-05T20:44:35.175Z,20.94
2019-01-05T20:50:10.546Z,20.92
2019-01-05T20:55:32.156Z,20.92
2019-01-05T21:00:54.163Z,20.89
2019-01-05T21:06:15.911Z,20.89
2019-01-05T21:11:37.871Z,20.85
2019-01-05T21:16:57.334Z,20.83
2019-01-05T21:22:18.936Z,20.83
2019-01-05T21:27:51.250Z,20.74
2019-01-05T21:33:25.791Z,20.74
2019-01-05T21:38:45.602Z,20.82
2019-01-05T21:44:19.716Z,20.80
2019-01-05T21:49:41.607Z,20.75
2019-01-05T21:55:13.929Z,20.84
2019-01-05T22:00:39.969Z,20.96
2019-01-05T22:06:03.075Z,21.02
2019-01-05T22:11:19.380Z,21.11
2019-01-05T22:16:41.082Z,21.21
2019-01-05T22:22:02.655Z,21.06
2019-01-05T22:27:25.733Z,21.05
2019-01-05T22:32:47.645Z,21.14
2019-01-05T22:38:04.094Z,21.08
2019-01-05T22:43:30.145Z,21.08
2019-01-05T22:49:04.614Z,21.04
2019-01-05T22:54:27.637Z,21.04
2019-01-05T23:00:06.235Z,21.05
2019-01-05T23:05:29.251Z,21.08
2019-01-05T23:11:04.950Z,21.04
2019-01-05T23:16:26.982Z,21.05
2019-01-05T23:21:49.798Z,21.05
2019-01-05T23:27:18.898Z,21.06
2019-01-05T23:32:51.273Z,21.03
2019-01-05T23:38:12.937Z,20.97
2019-01-05T23:43:35.958Z,21.07
2019-01-05T23:48:58.747Z,21.07
2019-01-05T23:54:23.981Z,21.20
2019-01-05T23:59:45.855Z,21.20
